createdAt,value
2023-10-26T00:01:59.622Z,96234.97
2023-10-26T00:04:26.026Z,96243.31
2023-10-26T00:06:52.559Z,96242.50
2023-10-26T00:09:18.962Z,96243.69
2023-10-26T00:11:45.416Z,96234.59
2023-10-26T00:14:11.878Z,96235.38
2023-10-26T00:16:38.249Z,96234.59
2023-10-26T00:19:04.945Z,96237.75
2023-10-26T00:21:31.444Z,96231.44
2023-10-26T00:23:57.937Z,96236.16
2023-10-26T00:26:24.459Z,96239.34
2023-10-26T00:28:50.886Z,96234.25
2023-10-26T00:31:17.276Z,96237.75
2023-10-26T00:33:43.794Z,96240.16
2023-10-26T00:36:10.278Z,96240.53
2023-10-26T00:38:36.649Z,96242.97
2023-10-26T00:41:03.278Z,96239.00
2023-10-26T00:43:29.806Z,96241.72
2023-10-26T00:45:56.223Z,96239.34
2023-10-26T00:48:22.703Z,96231.47
2023-10-26T00:50:49.315Z,96241.78
2023-10-26T00:53:16.307Z,96237.41
2023-10-26T00:55:42.854Z,96236.19
2023-10-26T00:58:09.232Z,96239.41
2023-10-26T01:00:35.598Z,96236.22
2023-10-26T01:03:02.034Z,96234.66
2023-10-26T01:05:28.475Z,96239.41
2023-10-26T01:07:54.858Z,96244.09
2023-10-26T01:10:21.302Z,96245.28
2023-10-26T01:12:47.742Z,96255.97
2023-10-26T01:15:14.309Z,96246.13
2023-10-26T01:17:40.782Z,96254.06
2023-10-26T01:20:07.596Z,96250.84
2023-10-26T01:22:33.982Z,96261.97
2023-10-26T01:25:00.451Z,96259.59
2023-10-26T01:27:26.881Z,96272.69
2023-10-26T01:29:53.342Z,96264.75
2023-10-26T01:32:19.759Z,96272.66
2023-10-26T01:34:46.245Z,96269.84
2023-10-26T01:37:12.669Z,96279.00
2023-10-26T01:39:39.809Z,96275.06
2023-10-26T01:42:11.138Z,96279.81
2023-10-26T01:44:38.353Z,96277.44
2023-10-26T01:47:04.915Z,96275.09
2023-10-26T01:49:31.286Z,96279.03
2023-10-26T01:51:57.664Z,96279.41
2023-10-26T01:54:24.045Z,96283.00
2023-10-26T01:56:50.455Z,96272.72
2023-10-26T01:59:16.885Z,96272.69
2023-10-26T02:01:43.282Z,96277.84
2023-10-26T02:04:09.967Z,96269.16
2023-10-26T02:06:36.619Z,96270.72
2023-10-26T02:09:03.499Z,96276.28
2023-10-26T02:11:29.908Z,96273.50
2023-10-26T02:13:56.268Z,96267.56
2023-10-26T02:16:22.659Z,96259.28
2023-10-26T02:18:49.464Z,96259.28
2023-10-26T02:21:15.965Z,96262.06
2023-10-26T02:23:42.555Z,96261.25
2023-10-26T02:26:09.043Z,96267.22
2023-10-26T02:28:35.582Z,96268.03
2023-10-26T02:31:02.187Z,96275.16
2023-10-26T02:33:28.767Z,96282.66
2023-10-26T02:35:55.183Z,96278.69
2023-10-26T02:38:21.576Z,96270.41
2023-10-26T02:40:47.938Z,96287.41
2023-10-26T02:43:14.305Z,96289.00
2023-10-26T02:45:41.798Z,96290.59
2023-10-26T02:48:08.252Z,96293.34
2023-10-26T02:50:36.235Z,96289.78
2023-10-26T02:53:02.893Z,96300.47
2023-10-26T02:55:29.276Z,96303.66
2023-10-26T02:57:56.012Z,96309.19
2023-10-26T03:00:22.475Z,96299.28
2023-10-26T03:02:49.087Z,96305.22
2023-10-26T03:05:15.920Z,96295.72
2023-10-26T03:07:42.627Z,96282.28
2023-10-26T03:10:09.152Z,96281.09
2023-10-26T03:12:35.764Z,96268.84
2023-10-26T03:15:02.243Z,96264.88
2023-10-26T03:17:28.707Z,96269.63
2023-10-26T03:19:55.112Z,96263.28
2023-10-26T03:22:21.645Z,96258.56
2023-10-26T03:24:49.465Z,96267.25
2023-10-26T03:27:15.860Z,96260.09
2023-10-26T03:29:42.324Z,96258.53
2023-10-26T03:32:08.746Z,96265.28
2023-10-26T03:34:35.421Z,96257.75
2023-10-26T03:37:01.860Z,96265.63
2023-10-26T03:39:29.447Z,96266.84
2023-10-26T03:41:56.141Z,96263.28
2023-10-26T03:44:22.848Z,96268.03
2023-10-26T03:46:49.199Z,96259.34
2023-10-26T03:49:15.578Z,96261.69
2023-10-26T03:51:41.951Z,96257.72
2023-10-26T03:54:08.422Z,96255.38
2023-10-26T03:56:35.058Z,96254.97
2023-10-26T03:59:01.432Z,96251.78
2023-10-26T04:01:27.861Z,96255.38
2023-10-26T04:03:54.290Z,96259.31
2023-10-26T04:06:20.711Z,96257.34
2023-10-26T04:08:47.122Z,96254.97
2023-10-26T04:11:17.860Z,96248.25
2023-10-26T04:13:44.336Z,96247.06
2023-10-26T04:16:10.794Z,96250.63
2023-10-26T04:18:37.297Z,96250.63
2023-10-26T04:21:03.837Z,96247.03
2023-10-26T04:23:30.273Z,96238.75
2023-10-26T04:25:56.634Z,96249.03
2023-10-26T04:28:23.094Z,96254.56
2023-10-26T04:30:49.659Z,96256.53
2023-10-26T04:33:16.270Z,96266.03
2023-10-26T04:35:43.427Z,96260.88
2023-10-26T04:38:10.205Z,96264.88
2023-10-26T04:40:37.727Z,96265.63
2023-10-26T04:43:04.693Z,96267.22
2023-10-26T04:45:31.204Z,96272.34
2023-10-26T04:47:57.699Z,96268.81
2023-10-26T04:50:24.395Z,96280.25
2023-10-26T04:52:51.131Z,96283.03
2023-10-26T04:55:17.539Z,96287.75
2023-10-26T04:57:44.278Z,96284.63
2023-10-26T05:00:11.204Z,96285.78
2023-10-26T05:02:41.474Z,96276.72
2023-10-26T05:05:08.503Z,96281.03
2023-10-26T05:07:34.884Z,96281.84
2023-10-26T05:10:01.289Z,96274.34
2023-10-26T05:12:27.800Z,96282.25
2023-10-26T05:14:54.164Z,96278.72
2023-10-26T05:17:20.527Z,96279.91
2023-10-26T05:19:46.894Z,96279.91
2023-10-26T05:22:13.337Z,96275.94
2023-10-26T05:24:40.078Z,96271.94
2023-10-26T05:27:06.462Z,96273.94
2023-10-26T05:29:32.844Z,96273.94
2023-10-26T05:31:59.286Z,96275.53
2023-10-26T05:34:25.721Z,96270.38
2023-10-26T05:36:52.077Z,96271.16
2023-10-26T05:39:18.482Z,96267.22
2023-10-26T05:41:45.209Z,96272.75
2023-10-26T05:44:11.660Z,96269.19
2023-10-26T05:46:38.017Z,96265.66
2023-10-26T05:49:05.133Z,96270.38
2023-10-26T05:51:31.834Z,96267.22
2023-10-26T05:53:58.340Z,96270.38
2023-10-26T05:56:24.733Z,96275.53
2023-10-26T05:58:51.696Z,96276.31
2023-10-26T06:01:18.556Z,96268.03
2023-10-26T06:03:45.300Z,96271.16
2023-10-26T06:06:11.851Z,96273.56
2023-10-26T06:08:38.274Z,96277.09
2023-10-26T06:11:04.894Z,96282.25
2023-10-26T06:13:31.320Z,96291.34
2023-10-26T06:15:57.734Z,96291.75
2023-10-26T06:18:24.178Z,96294.88
2023-10-26T06:20:59.793Z,96291.72
2023-10-26T06:23:26.276Z,96277.50
2023-10-26T06:25:57.086Z,96298.84
2023-10-26T06:28:23.482Z,96301.59
2023-10-26T06:30:49.850Z,96305.16
2023-10-26T06:33:16.285Z,96314.66
2023-10-26T06:35:43.026Z,96307.56
2023-10-26T06:38:09.409Z,96317.41
2023-10-26T06:40:35.773Z,96319.00
2023-10-26T06:43:02.274Z,96318.63
2023-10-26T06:45:28.740Z,96331.66
2023-10-26T06:47:55.178Z,96329.69
2023-10-26T06:50:23.342Z,96343.94
2023-10-26T06:52:49.812Z,96340.38
2023-10-26T06:55:30.085Z,96340.38
2023-10-26T06:57:57.350Z,96337.63
2023-10-26T07:00:24.307Z,96337.63
2023-10-26T07:02:50.836Z,96343.56
2023-10-26T07:05:17.761Z,96339.59
2023-10-26T07:07:44.191Z,96338.03
2023-10-26T07:10:16.347Z,96350.28
2023-10-26T07:12:43.517Z,96340.00
2023-10-26T07:15:10.133Z,96334.84
2023-10-26T07:17:36.660Z,96342.38
2023-10-26T07:20:03.391Z,96345.16
2023-10-26T07:22:30.068Z,96343.56
2023-10-26T07:24:56.454Z,96336.84
2023-10-26T07:27:22.853Z,96340.00
2023-10-26T07:29:49.308Z,96336.06
2023-10-26T07:32:15.680Z,96338.41
2023-10-26T07:34:42.663Z,96338.41
2023-10-26T07:37:09.356Z,96338.44
2023-10-26T07:39:45.181Z,96334.09
2023-10-26T07:42:14.659Z,96331.31
2023-10-26T07:44:41.102Z,96331.31
2023-10-26T07:47:10.555Z,96334.47
2023-10-26T07:49:36.981Z,96346.34
2023-10-26T07:52:03.448Z,96347.94
2023-10-26T07:54:30.001Z,96346.38
2023-10-26T07:56:56.501Z,96340.44
2023-10-26T07:59:22.921Z,96349.53
2023-10-26T08:01:49.715Z,96357.03
2023-10-26T08:04:16.152Z,96359.03
2023-10-26T08:06:42.592Z,96353.13
2023-10-26T08:09:09.021Z,96355.47
2023-10-26T08:11:35.672Z,96345.59
2023-10-26T08:14:02.162Z,96346.38
2023-10-26T08:16:39.900Z,96338.88
2023-10-26T08:19:10.582Z,96331.72
2023-10-26T08:21:37.037Z,96324.22
2023-10-26T08:24:03.693Z,96329.78
2023-10-26T08:26:30.057Z,96327.38
2023-10-26T08:29:11.997Z,96328.56
2023-10-26T08:31:42.076Z,96317.50
2023-10-26T08:34:10.056Z,96312.34
2023-10-26T08:36:36.594Z,96319.84
2023-10-26T08:39:03.865Z,96309.97
2023-10-26T08:41:32.724Z,96311.16
2023-10-26T08:43:59.619Z,96306.41
2023-10-26T08:46:26.151Z,96319.47
2023-10-26T08:48:52.623Z,96318.66
2023-10-26T08:51:18.984Z,96303.22
2023-10-26T08:53:45.436Z,96304.41
2023-10-26T08:56:12.527Z,96304.41
2023-10-26T08:58:39.203Z,96302.84
2023-10-26T09:01:06.294Z,96307.94
2023-10-26T09:03:33.980Z,96302.44
2023-10-26T09:06:00.399Z,96291.75
2023-10-26T09:08:29.796Z,96296.06
2023-10-26T09:10:56.244Z,96292.94
2023-10-26T09:13:23.218Z,96295.28
2023-10-26T09:15:50.062Z,96295.69
2023-10-26T09:18:16.667Z,96300.81
2023-10-26T09:20:46.122Z,96287.34
2023-10-26T09:23:28.517Z,96283.78
2023-10-26T09:25:58.723Z,96272.34
2023-10-26T09:28:25.198Z,96274.69
2023-10-26T09:30:51.973Z,96267.56
2023-10-26T09:33:25.497Z,96281.03
2023-10-26T09:35:52.095Z,96291.72
2023-10-26T09:38:18.715Z,96290.91
2023-10-26T09:40:45.208Z,96288.53
2023-10-26T09:43:11.580Z,96291.72
2023-10-26T09:45:38.232Z,96288.53
2023-10-26T09:48:06.478Z,96287.78
2023-10-26T09:50:39.281Z,96280.22
2023-10-26T09:53:05.681Z,96290.13
2023-10-26T09:55:32.090Z,96291.69
2023-10-26T09:58:01.624Z,96284.56
2023-10-26T10:00:32.785Z,96285.34
2023-10-26T10:03:12.212Z,96292.06
2023-10-26T10:05:42.602Z,96292.09
2023-10-26T10:08:09.045Z,96300.75
2023-10-26T10:10:35.531Z,96299.63
2023-10-26T10:13:02.448Z,96298.44
2023-10-26T10:15:42.604Z,96297.63
2023-10-26T10:18:10.108Z,96296.06
2023-10-26T10:20:36.902Z,96304.38
2023-10-26T10:23:03.744Z,96299.25
2023-10-26T10:25:50.342Z,96300.47
2023-10-26T10:28:17.074Z,96304.03
2023-10-26T10:30:51.706Z,96308.75
2023-10-26T10:33:22.088Z,96316.28
2023-10-26T10:35:51.368Z,96331.75
2023-10-26T10:38:18.462Z,96330.53
2023-10-26T10:40:58.475Z,96339.66
2023-10-26T10:43:35.112Z,96335.28
2023-10-26T10:46:10.674Z,96325.78
2023-10-26T10:48:37.168Z,96328.97
2023-10-26T10:51:03.610Z,96319.84
2023-10-26T10:53:32.522Z,96326.59
2023-10-26T10:55:59.583Z,96323.81
2023-10-26T10:58:26.287Z,96326.97
2023-10-26T11:00:52.769Z,96321.00
2023-10-26T11:03:22.469Z,96319.44
2023-10-26T11:05:48.914Z,96322.63
2023-10-26T11:08:15.387Z,96331.72
2023-10-26T11:10:41.920Z,96332.91
2023-10-26T11:13:08.305Z,96336.84
2023-10-26T11:15:35.103Z,96319.44
2023-10-26T11:18:01.876Z,96319.44
2023-10-26T11:20:39.119Z,96307.94
2023-10-26T11:23:09.021Z,96305.97
2023-10-26T11:25:35.654Z,96304.81
2023-10-26T11:28:02.229Z,96313.09
2023-10-26T11:30:28.652Z,96300.81
2023-10-26T11:32:55.464Z,96309.94
2023-10-26T11:35:22.841Z,96309.94
2023-10-26T11:37:50.483Z,96300.81
2023-10-26T11:40:17.231Z,96313.88
2023-10-26T11:42:44.233Z,96318.25
2023-10-26T11:45:12.724Z,96316.25
2023-10-26T11:47:48.966Z,96311.50
2023-10-26T11:50:21.183Z,96311.09
2023-10-26T11:52:47.556Z,96303.19
2023-10-26T11:55:15.586Z,96299.63
2023-10-26T11:57:42.155Z,96294.88
2023-10-26T12:00:09.016Z,96292.09
2023-10-26T12:02:35.469Z,96291.69
2023-10-26T12:05:01.980Z,96288.13
2023-10-26T12:07:28.570Z,96288.88
2023-10-26T12:09:54.987Z,96280.84
2023-10-26T12:12:21.441Z,96285.22
2023-10-26T12:14:48.284Z,96270.94
2023-10-26T12:17:14.643Z,96267.41
2023-10-26T12:19:41.084Z,96270.09
2023-10-26T12:22:07.485Z,96262.56
2023-10-26T12:24:34.184Z,96265.34
2023-10-26T12:27:00.993Z,96261.44
2023-10-26T12:29:27.397Z,96267.47
2023-10-26T12:31:53.939Z,96278.16
2023-10-26T12:34:20.743Z,96282.13
2023-10-26T12:36:47.319Z,96291.19
2023-10-26T12:39:14.347Z,96301.47
2023-10-26T12:41:42.682Z,96303.44
2023-10-26T12:44:09.057Z,96303.44
2023-10-26T12:46:35.784Z,96311.41
2023-10-26T12:49:02.197Z,96298.75
2023-10-26T12:51:28.655Z,96301.53
2023-10-26T12:53:57.488Z,96294.03
2023-10-26T12:56:26.323Z,96295.25
2023-10-26T12:58:52.813Z,96293.28
2023-10-26T13:01:19.217Z,96300.41
2023-10-26T13:03:46.069Z,96304.81
2023-10-26T13:06:12.455Z,96306.75
2023-10-26T13:08:38.972Z,96311.91
2023-10-26T13:11:05.431Z,96299.63
2023-10-26T13:13:31.819Z,96298.78
2023-10-26T13:15:58.215Z,96297.19
2023-10-26T13:18:24.615Z,96297.97
2023-10-26T13:20:51.307Z,96308.28
2023-10-26T13:23:18.711Z,96309.03
2023-10-26T13:25:45.719Z,96304.31
2023-10-26T13:28:13.181Z,96291.97
2023-10-26T13:30:39.734Z,96293.47
2023-10-26T13:33:07.878Z,96288.31
2023-10-26T13:35:35.975Z,96275.31
2023-10-26T13:38:02.338Z,96260.66
2023-10-26T13:40:28.845Z,96270.22
2023-10-26T13:42:55.249Z,96266.25
2023-10-26T13:45:23.384Z,96252.41
2023-10-26T13:47:51.081Z,96247.31
2023-10-26T13:50:20.357Z,96254.06
2023-10-26T13:52:46.761Z,96263.97
2023-10-26T13:55:13.199Z,96269.13
2023-10-26T13:57:39.718Z,96270.72
2023-10-26T14:00:09.183Z,96273.50
2023-10-26T14:02:35.753Z,96267.13
2023-10-26T14:05:03.316Z,96272.28
2023-10-26T14:07:31.362Z,96266.34
2023-10-26T14:09:57.826Z,96267.53
2023-10-26T14:12:24.241Z,96261.19
2023-10-26T14:14:50.685Z,96255.66
2023-10-26T14:17:17.076Z,96258.03
2023-10-26T14:19:43.494Z,96255.28
2023-10-26T14:22:09.893Z,96258.84
2023-10-26T14:24:36.302Z,96271.91
2023-10-26T14:27:02.696Z,96264.00
2023-10-26T14:29:29.094Z,96265.19
2023-10-26T14:31:55.496Z,96268.34
2023-10-26T14:34:21.913Z,96255.28
2023-10-26T14:36:48.399Z,96253.69
2023-10-26T14:39:14.851Z,96250.16
2023-10-26T14:41:42.003Z,96245.75
2023-10-26T14:44:08.990Z,96262.38
2023-10-26T14:46:35.656Z,96263.22
2023-10-26T14:49:03.796Z,96269.53
2023-10-26T14:51:30.181Z,96268.34
2023-10-26T14:53:56.816Z,96259.25
2023-10-26T14:56:23.355Z,96269.94
2023-10-26T14:58:50.771Z,96266.00
2023-10-26T15:01:17.188Z,96264.81
2023-10-26T15:03:43.704Z,96264.78
2023-10-26T15:06:10.104Z,96265.22
2023-10-26T15:08:36.484Z,96268.00
2023-10-26T15:11:23.992Z,96263.63
2023-10-26T15:13:50.205Z,96266.41
2023-10-26T15:16:16.768Z,96278.69
2023-10-26T15:18:43.248Z,96280.25
2023-10-26T15:21:09.727Z,96278.69
2023-10-26T15:23:36.103Z,96274.72
2023-10-26T15:26:04.229Z,96278.28
2023-10-26T15:28:33.367Z,96277.50
2023-10-26T15:31:03.378Z,96285.00
2023-10-26T15:33:30.037Z,96279.47
2023-10-26T15:35:56.455Z,96279.03
2023-10-26T15:38:23.021Z,96269.19
2023-10-26T15:40:59.690Z,96268.00
2023-10-26T15:43:26.054Z,96261.66
2023-10-26T15:45:52.451Z,96258.09
2023-10-26T15:48:18.845Z,96245.44
2023-10-26T15:51:05.292Z,96257.69
2023-10-26T15:53:31.911Z,96254.56
2023-10-26T15:56:03.825Z,96263.69
2023-10-26T15:58:30.199Z,96270.78
2023-10-26T16:01:03.162Z,96271.19
2023-10-26T16:03:30.807Z,96268.41
2023-10-26T16:06:03.924Z,96267.22
2023-10-26T16:08:30.868Z,96253.78
2023-10-26T16:10:57.231Z,96255.38
2023-10-26T16:13:23.637Z,96254.19
2023-10-26T16:15:50.042Z,96265.66
2023-10-26T16:18:16.452Z,96271.19
2023-10-26T16:20:42.809Z,96282.66
2023-10-26T16:23:09.188Z,96275.56
2023-10-26T16:25:35.627Z,96285.44
2023-10-26T16:28:02.476Z,96291.78
2023-10-26T16:30:28.896Z,96293.34
2023-10-26T16:32:55.265Z,96286.25
2023-10-26T16:35:21.629Z,96288.19
2023-10-26T16:37:48.081Z,96284.25
2023-10-26T16:40:16.369Z,96294.13
2023-10-26T16:42:42.836Z,96290.97
2023-10-26T16:45:09.237Z,96292.16
2023-10-26T16:47:44.465Z,96302.03
2023-10-26T16:50:15.002Z,96300.47
2023-10-26T16:52:41.363Z,96301.66
2023-10-26T16:55:07.932Z,96301.66
2023-10-26T16:57:34.339Z,96301.25
2023-10-26T17:00:00.762Z,96305.19
2023-10-26T17:02:27.114Z,96303.22
2023-10-26T17:04:55.218Z,96302.81
2023-10-26T17:07:25.304Z,96311.53
2023-10-26T17:09:51.840Z,96327.34
2023-10-26T17:12:18.302Z,96330.50
2023-10-26T17:14:49.158Z,96330.91
2023-10-26T17:17:15.730Z,96325.78
2023-10-26T17:19:42.219Z,96322.19
2023-10-26T17:22:10.406Z,96317.06
2023-10-26T17:24:37.348Z,96313.91
2023-10-26T17:27:03.805Z,96308.38
2023-10-26T17:29:30.249Z,96308.38
2023-10-26T17:31:57.146Z,96299.31
2023-10-26T17:34:25.820Z,96294.53
2023-10-26T17:36:52.973Z,96283.06
2023-10-26T17:39:19.602Z,96298.09
2023-10-26T17:41:46.634Z,96304.81
2023-10-26T17:44:13.418Z,96297.69
2023-10-26T17:46:40.337Z,96296.50
2023-10-26T17:49:06.856Z,96300.81
2023-10-26T17:51:34.728Z,96312.31
2023-10-26T17:54:05.202Z,96324.56
2023-10-26T17:56:33.043Z,96338.41
2023-10-26T17:58:59.496Z,96330.88
2023-10-26T18:01:26.167Z,96332.03
2023-10-26T18:03:52.610Z,96324.50
2023-10-26T18:06:23.615Z,96336.75
2023-10-26T18:08:50.944Z,96335.16
2023-10-26T18:11:17.321Z,96333.19
2023-10-26T18:13:43.704Z,96334.78
2023-10-26T18:16:10.466Z,96335.56
2023-10-26T18:18:37.172Z,96343.47
2023-10-26T18:21:04.353Z,96342.31
2023-10-26T18:23:30.989Z,96347.84
2023-10-26T18:25:59.425Z,96349.06
2023-10-26T18:28:26.506Z,96351.81
2023-10-26T18:31:02.699Z,96342.34
2023-10-26T18:33:29.644Z,96338.00
2023-10-26T18:36:00.540Z,96330.47
2023-10-26T18:38:27.229Z,96326.50
2023-10-26T18:40:53.603Z,96330.03
2023-10-26T18:43:19.985Z,96333.19
2023-10-26T18:45:59.290Z,96333.22
2023-10-26T18:48:25.706Z,96330.47
2023-10-26T18:50:52.130Z,96326.47
2023-10-26T18:53:19.588Z,96334.38
2023-10-26T18:55:49.039Z,96323.31
2023-10-26T18:58:15.781Z,96322.50
2023-10-26T19:00:42.339Z,96322.84
2023-10-26T19:03:09.944Z,96327.19
2023-10-26T19:05:36.487Z,96336.63
2023-10-26T19:08:04.034Z,96345.69
2023-10-26T19:10:31.072Z,96362.28
2023-10-26T19:12:57.610Z,96361.84
2023-10-26T19:15:24.201Z,96374.47
2023-10-26T19:17:51.223Z,96370.50
2023-10-26T19:20:21.560Z,96363.38
2023-10-26T19:22:50.583Z,96367.72
2023-10-26T19:25:22.153Z,96366.56
2023-10-26T19:27:49.213Z,96374.06
2023-10-26T19:30:16.270Z,96371.69
2023-10-26T19:32:42.664Z,96369.34
2023-10-26T19:35:09.226Z,96371.31
2023-10-26T19:37:35.608Z,96373.28
2023-10-26T19:40:06.311Z,96374.91
2023-10-26T19:42:37.333Z,96369.72
2023-10-26T19:45:05.674Z,96361.00
2023-10-26T19:47:32.142Z,96355.84
2023-10-26T19:49:59.196Z,96352.25
2023-10-26T19:52:25.564Z,96348.19
2023-10-26T19:54:51.976Z,96344.97
2023-10-26T19:57:19.066Z,96343.28
2023-10-26T19:59:45.960Z,96332.94
2023-10-26T20:02:12.950Z,96325.47
2023-10-26T20:04:39.596Z,96318.03
2023-10-26T20:07:06.026Z,96316.56
2023-10-26T20:09:32.571Z,96317.34
2023-10-26T20:11:58.940Z,96323.19
2023-10-26T20:14:25.397Z,96335.38
2023-10-26T20:16:52.014Z,96334.63
2023-10-26T20:19:18.461Z,96343.25
2023-10-26T20:21:44.996Z,96346.75
2023-10-26T20:24:11.814Z,96352.63
2023-10-26T20:26:38.469Z,96352.59
2023-10-26T20:29:04.838Z,96358.16
2023-10-26T20:31:31.809Z,96372.72
2023-10-26T20:33:58.482Z,96363.63
2023-10-26T20:36:25.087Z,96363.31
2023-10-26T20:38:51.471Z,96368.38
2023-10-26T20:41:18.020Z,96384.50
2023-10-26T20:43:44.654Z,96378.13
2023-10-26T20:46:11.239Z,96387.56
2023-10-26T20:48:41.630Z,96388.25
2023-10-26T20:51:11.773Z,96392.94
2023-10-26T20:53:38.272Z,96395.63
2023-10-26T20:56:07.614Z,96385.81
2023-10-26T20:58:34.083Z,96398.44
2023-10-26T21:01:04.572Z,96392.56
2023-10-26T21:03:31.144Z,96392.97
2023-10-26T21:06:04.202Z,96392.03
2023-10-26T21:08:30.692Z,96388.25
2023-10-26T21:10:57.085Z,96387.94
2023-10-26T21:13:23.544Z,96382.38
2023-10-26T21:15:50.016Z,96371.34
2023-10-26T21:18:16.487Z,96376.78
2023-10-26T21:20:42.838Z,96387.66
2023-10-26T21:23:09.352Z,96389.91
2023-10-26T21:25:35.698Z,96388.63
2023-10-26T21:28:02.161Z,96385.94
2023-10-26T21:30:28.568Z,96378.00
2023-10-26T21:32:55.013Z,96377.97
2023-10-26T21:35:21.391Z,96377.50
2023-10-26T21:37:47.780Z,96380.41
2023-10-26T21:40:14.257Z,96375.34
2023-10-26T21:42:40.728Z,96373.84
2023-10-26T21:45:07.981Z,96386.50
2023-10-26T21:47:34.404Z,96391.69
2023-10-26T21:50:00.796Z,96390.22
2023-10-26T21:52:27.588Z,96393.34
2023-10-26T21:54:54.028Z,96397.53
2023-10-26T21:57:20.772Z,96395.19
2023-10-26T21:59:47.168Z,96383.06
2023-10-26T22:02:14.447Z,96384.28
2023-10-26T22:04:40.914Z,96387.50
2023-10-26T22:07:07.334Z,96389.38
2023-10-26T22:09:41.534Z,96384.88
2023-10-26T22:12:15.184Z,96383.16
2023-10-26T22:14:42.074Z,96373.31
2023-10-26T22:17:08.499Z,96373.38
2023-10-26T22:19:37.648Z,96367.81
2023-10-26T22:22:04.497Z,96365.72
2023-10-26T22:24:30.934Z,96369.50
2023-10-26T22:26:57.287Z,96359.47
2023-10-26T22:29:29.977Z,96360.69
2023-10-26T22:31:57.250Z,96354.00
2023-10-26T22:34:23.752Z,96349.34
2023-10-26T22:36:50.256Z,96357.09
2023-10-26T22:39:16.706Z,96360.94
2023-10-26T22:41:44.398Z,96358.81
2023-10-26T22:44:11.188Z,96346.88
2023-10-26T22:46:37.580Z,96346.00
2023-10-26T22:49:04.031Z,96347.03
2023-10-26T22:51:30.802Z,96341.13
2023-10-26T22:53:57.168Z,96344.66
2023-10-26T22:56:23.531Z,96349.97
2023-10-26T22:58:50.212Z,96349.69
2023-10-26T23:01:17.161Z,96343.72
2023-10-26T23:03:43.594Z,96346.91
2023-10-26T23:06:10.041Z,96348.78
2023-10-26T23:08:36.421Z,96358.28
2023-10-26T23:11:02.883Z,96352.78
2023-10-26T23:13:29.297Z,96348.06
2023-10-26T23:15:55.721Z,96349.53
2023-10-26T23:18:22.228Z,96340.78
2023-10-26T23:20:48.613Z,96346.28
2023-10-26T23:23:15.026Z,96344.94
2023-10-26T23:25:42.764Z,96345.44
2023-10-26T23:28:09.298Z,96344.16
2023-10-26T23:30:36.228Z,96340.63
2023-10-26T23:33:03.481Z,96347.63
2023-10-26T23:35:31.854Z,96343.59
2023-10-26T23:37:58.438Z,96329.34
2023-10-26T23:40:25.557Z,96327.06
2023-10-26T23:42:52.015Z,96328.97
2023-10-26T23:45:18.410Z,96338.16
2023-10-26T23:47:44.965Z,96338.38
2023-10-26T23:50:11.549Z,96333.81
2023-10-26T23:52:39.180Z,96330.34
2023-10-26T23:55:06.618Z,96322.81
2023-10-26T23:57:33.048Z,96331.66
2023-10-26T23:59:59.413Z,96342.03
